VEGTVEIM

Guest
Details From VEGT - GUWAHATI INTL
To VEIM - IMPHAL
Flight Number -
Tags generated
Created
Modified
Stats Distance 152 nm / 282 km
Max Altitude 15,600 ft / 4,755 m
Waypoints 4
Social Downloads 4
Likes 0
Share VATSIM

Download

Looking for another format? Having issues loading an existing format? Contact us
Advertisement - Login to hide

Notes

Basic altitude profile: - Ascent Rate: 2500ft/min - Ascent Speed: 250kts - Cruise Altitude: 35000ft - Cruise Speed: 420kts - Descent Rate: 1500ft/min - Descent Speed: 250kts Options: - Use NATs: yes - Use PACOTS: yes - Use low airways: yes - Use high airways: yes

Route

VEGT GGT W53 VENUM VEIM

ID Type Via Altitude Latitude Longitude Leg Dist Tot Dist Heading (true) Name
O VEGT APT - 0 ft / 0 m 26.10609˚ 91.58594˚ - 0 nm - GUWAHATI INTL
GGT VOR - 0 ft / 0 m 26.10189˚ 91.58574˚ 0 nm 0 nm 182° / 182° GUWAHATI VOR-DME
VENUM FIX W53 (AWY-LO) 15,600 ft / 4,755 m 25.20143˚ 92.64479˚ 78 nm 79 nm 133° / 134° -
O VEIM APT - 0 ft / 0 m 24.75995˚ 93.89670˚ 73 nm 152 nm 111° / 112° IMPHAL

Altitude Profile

Advertisement - Login to hide

VEGT

Details ICAO VEGT (GAU)
Name GUWAHATI INTL
Region India
Timezone Asia/Kolkata (UTC+5.5)
Stats Elevation 162 ft / 49 m (AMSL)
Location 26.106091° 91.585940°
Runways 1
Magnetic Variation 0.159° W

METAR

VEGT 110400Z 01007KT 4000 BR FEW012 SCT018 BKN100 24/22 Q1014 NOSIG

Decode

TAF

Not found

Departure Runways

ID Width Length Bearing (true) Bearing (mag) Surface Threshold Offset Overrun Length
02 150 ft / 46 m 9,028 ft / 2,752 m 22.66° 22.82° Asphalt 0 ft / 0 m 0 ft / 0 m
20 150 ft / 46 m 9,028 ft / 2,752 m 202.66° 202.82° Asphalt 0 ft / 0 m 0 ft / 0 m

VEIM

Details ICAO VEIM (IMF)
Name IMPHAL
Region India
Timezone Asia/Kolkata (UTC+5.5)
Stats Elevation 2,540 ft / 774 m (AMSL)
Location 24.759951° 93.896699°
Runways 1
Magnetic Variation 0.415° W

METAR

VEIM 110400Z 00000KT 1800 -RA BR SCT006 SCT016 OVC090 19/18 Q1017 NOSIG

Decode

TAF

Not found

Destination Runways

ID Width Length Bearing (true) Bearing (mag) Surface Threshold Offset Overrun Length
04 148 ft / 45 m 9,020 ft / 2,749 m 34.48° 34.89° Asphalt 0 ft / 0 m 195 ft / 59 m
22 148 ft / 45 m 9,020 ft / 2,749 m 214.49° 214.90° Asphalt 0 ft / 0 m 200 ft / 61 m

Approach Navaids

Runway Type Ident Frequency Range Bearing (true) Bearing (mag) Slope Elevation
04 Localiser IPH 110.30 MHz 18 nm / 33 km 35.72° 36.13° - 2,540 ft / 774 m (AMSL)
04 Glidescope IPH 110.30 MHz 10 nm / 19 km 34.49° 34.90° 3.50° 2,540 ft / 774 m (AMSL)
04 DME IPH 110.30 MHz 18 nm / 33 km - - - 2,540 ft / 774 m (AMSL)